Aérodrome :
LOGIN :

S'inscrire | Disclaimer

   EN    FR    IT 

 










Légende :    VFR   VFR Marginal   IFR   IFR Intensif   IFR Très Intensif
Visi : 
Plafond : 
>= 8 km
>= 3000ft
5 à 8 km
1000 à 3000 ft
1500m à 5 km
500 à 1000 ft
800 à 1500m
200 à 500 ft
< 800m
< 200 ft
Symboles :   Orages  Brouillard  Fortes neiges  Fortes précipitations  Vent > 20 kt
SIGMETs :   Divers  Orages  Givrage  Turbulence  Onde Orograph.  Cendres Volcan.






- Altitude de l'aérodrome : 313 ft


LFQA - Reims-Prunay

DERNIER METAR :
  • 301630Z AUTO 25005KT 9999 -RA FEW037/// SCT048/// BKN058/// ///TCU 14/13 Q1015

METARs EXPIRÉS :
  • 301600Z AUTO VRB03KT 9999 RA FEW010/// BKN070/// OVC082/// ///CB 14/13 Q1015
  • 301530Z AUTO 24006KT 9999 -RA BKN009/// BKN074/// OVC086/// ///CB 14/13 Q1015
  • 301500Z AUTO VRB02KT 9999 FEW009/// OVC080/// ///TCU 14/13 Q1015
  • 301430Z AUTO 31005KT 9999 FEW008 OVC072 14/12 Q1015
  • 301400Z AUTO 29003KT 240V320 9999 -RA SCT009/// OVC064/// ///CB 14/13 Q1015

TAF N/A



MET'MAP, la Météo Aéronautique d'un coup d'oeil ! - Copyright ORBIFLY Décembre 2007 - Disclaimer

ORBIFLY MET'MAP TEAM :

Programmation & Développement : Alexandra Zaïnal
Sur une idée originale de : Baudouin d'Aumeries
Soutien technique & logistique : Manuel Goepfert
Assistance : Marc-Olivier Méhu




SOURCES & CREDITS :

   NOAA